Time;durP1;ratioP1;P1;durP2;ratioP2;P2;SDS_P1;SDS_P2;PMS_P1;PMS_P2;Temp;Humidity;BMP_temperature;BMP_pressure;BME280_temperature;BME280_humidity;BME280_pressure;Samples;Min_cycle;Max_cycle;Signal;HPM_P1;HPM_P2
2022/05/10 00:00:50;;;;;;;1.75;0.80;;;;;;;5.32;55.78;99812.47;5095871;28;20058;-70
2022/05/10 00:03:18;;;;;;;1.50;0.77;;;;;;;5.29;56.05;99807.53;5089231;28;20094;-71
2022/05/10 00:05:46;;;;;;;1.70;0.93;;;;;;;5.36;55.46;99818.22;5074372;28;20452;-71
2022/05/10 00:08:16;;;;;;;1.75;0.93;;;;;;;5.43;55.24;99810.41;5089019;28;20052;-70
2022/05/10 00:10:45;;;;;;;4.85;0.93;;;;;;;5.46;55.07;99812.59;5096277;28;20047;-71
2022/05/10 00:13:13;;;;;;;2.28;0.82;;;;;;;5.44;55.32;99815.63;5095625;28;20036;-70
2022/05/10 00:15:41;;;;;;;1.52;0.80;;;;;;;5.45;55.49;99809.00;5094471;28;20044;-71
2022/05/10 00:18:13;;;;;;;1.90;0.73;;;;;;;5.43;55.54;99813.16;5095176;28;20102;-70
2022/05/10 00:20:41;;;;;;;2.33;1.13;;;;;;;5.40;55.47;99798.03;5095852;28;20560;-71
2022/05/10 00:23:08;;;;;;;3.20;0.80;;;;;;;5.34;55.39;99804.72;5095176;28;20052;-69
2022/05/10 00:25:35;;;;;;;1.27;0.80;;;;;;;5.33;55.56;99808.56;5094277;28;20111;-70
2022/05/10 00:28:02;;;;;;;2.85;1.17;;;;;;;5.30;54.67;99803.63;5095202;28;20047;-71
2022/05/10 00:30:29;;;;;;;1.67;0.85;;;;;;;5.29;54.96;99804.75;5094952;28;20055;-71
2022/05/10 00:32:56;;;;;;;1.08;0.70;;;;;;;5.21;55.35;99799.88;5094857;28;20547;-70
2022/05/10 00:35:27;;;;;;;3.30;0.80;;;;;;;5.29;55.36;99807.53;5094121;28;20051;-70
2022/05/10 00:37:57;;;;;;;5.93;0.98;;;;;;;5.33;54.69;99793.97;5095220;28;20055;-70
2022/05/10 00:40:27;;;;;;;2.28;0.80;;;;;;;5.27;54.59;99795.16;5094829;28;20048;-70
2022/05/10 00:43:21;;;;;;;1.20;0.65;;;;;;;5.20;54.73;99792.72;5078126;28;20055;-70
2022/05/10 00:45:55;;;;;;;3.05;0.73;;;;;;;5.18;54.49;99791.38;5075080;28;20430;-70
2022/05/10 00:48:41;;;;;;;1.67;0.80;;;;;;;5.27;54.47;99790.44;5075369;28;20056;-70
2022/05/10 00:51:23;;;;;;;1.30;0.70;;;;;;;5.22;54.41;99790.50;5073788;28;20052;-70
2022/05/10 00:54:04;;;;;;;2.38;0.80;;;;;;;5.22;54.65;99789.69;5092065;28;20050;-70
2022/05/10 00:57:17;;;;;;;1.42;0.88;;;;;;;5.24;54.68;99792.97;5094405;28;20040;-70
2022/05/10 01:00:10;;;;;;;2.20;0.80;;;;;;;5.22;54.35;99796.03;5064451;28;20453;-70
2022/05/10 01:02:46;;;;;;;1.17;0.73;;;;;;;5.21;54.58;99791.59;5094563;28;20514;-70
2022/05/10 01:05:26;;;;;;;4.30;0.98;;;;;;;5.18;54.15;99789.44;5094651;28;20113;-70
2022/05/10 01:07:59;;;;;;;1.20;0.77;;;;;;;5.06;54.61;99786.25;5093978;28;20070;-70
2022/05/10 01:10:43;;;;;;;1.15;0.75;;;;;;;5.00;54.52;99790.16;5093617;28;20411;-71
2022/05/10 01:13:25;;;;;;;2.33;1.00;;;;;;;5.01;54.74;99782.72;5094453;28;20457;-70
2022/05/10 01:16:00;;;;;;;7.03;0.75;;;;;;;4.96;54.52;99786.34;5094154;28;20048;-70
2022/05/10 01:18:27;;;;;;;4.43;0.80;;;;;;;4.88;55.02;99780.63;5094445;28;20075;-71
2022/05/10 01:21:01;;;;;;;1.35;0.60;;;;;;;4.88;54.99;99778.69;5093947;28;20056;-71
2022/05/10 01:23:27;;;;;;;2.75;0.70;;;;;;;4.92;54.81;99774.25;5093816;28;20055;-71
2022/05/10 01:26:19;;;;;;;2.15;0.82;;;;;;;4.99;54.57;99772.00;5094848;28;20062;-71
2022/05/10 01:28:52;;;;;;;1.83;0.90;;;;;;;4.94;54.71;99762.94;5094493;28;20552;-71
2022/05/10 01:31:27;;;;;;;2.42;0.70;;;;;;;4.91;54.99;99778.13;5086246;28;20150;-71
2022/05/10 01:33:59;;;;;;;4.97;0.75;;;;;;;4.89;54.72;99776.78;5073869;28;20097;-71
2022/05/10 01:36:43;;;;;;;6.47;1.00;;;;;;;4.91;55.17;99780.03;5073793;28;20051;-71
2022/05/10 01:39:26;;;;;;;1.45;0.70;;;;;;;4.91;54.91;99786.38;5074202;28;20496;-70
2022/05/10 01:41:59;;;;;;;1.70;0.77;;;;;;;4.89;54.83;99785.84;5081175;28;20052;-70
2022/05/10 01:44:36;;;;;;;2.55;0.98;;;;;;;4.90;55.00;99778.41;5093932;28;20044;-70
2022/05/10 01:47:10;;;;;;;2.55;0.68;;;;;;;4.83;55.35;99783.44;5093914;28;20526;-70
2022/05/10 01:49:52;;;;;;;0.68;0.50;;;;;;;4.75;55.18;99768.38;5093796;28;20403;-70
2022/05/10 01:52:32;;;;;;;2.38;0.80;;;;;;;4.78;55.57;99776.06;5094046;28;20047;-71
2022/05/10 01:55:17;;;;;;;1.38;0.80;;;;;;;4.77;55.42;99771.63;5093486;28;20048;-70
2022/05/10 01:57:44;;;;;;;1.83;0.98;;;;;;;4.76;55.56;99763.66;5093470;28;20567;-71
2022/05/10 02:00:20;;;;;;;0.68;0.60;;;;;;;4.67;55.81;99754.38;5093952;28;20518;-70
2022/05/10 02:03:21;;;;;;;1.45;0.63;;;;;;;4.64;55.30;99768.72;5093382;28;20040;-65
2022/05/10 02:06:05;;;;;;;0.93;0.57;;;;;;;4.64;56.08;99757.69;5093567;28;20043;-65
2022/05/10 02:08:48;;;;;;;1.38;0.75;;;;;;;4.61;56.22;99767.38;5093282;28;20067;-65
2022/05/10 02:11:17;;;;;;;0.88;0.63;;;;;;;4.66;55.48;99761.84;5093390;28;20052;-64
2022/05/10 02:14:01;;;;;;;2.13;0.80;;;;;;;4.68;55.69;99767.84;5093442;28;20566;-64
2022/05/10 02:16:41;;;;;;;3.72;1.00;;;;;;;4.64;55.49;99763.22;5092949;28;20047;-64
2022/05/10 02:19:23;;;;;;;4.05;0.85;;;;;;;4.64;55.76;99753.03;5092646;28;20074;-66
2022/05/10 02:21:58;;;;;;;1.25;0.70;;;;;;;4.63;56.00;99759.66;5092895;28;20052;-64
2022/05/10 02:24:44;;;;;;;2.20;0.85;;;;;;;4.70;55.40;99759.28;5093876;28;20047;-63
2022/05/10 02:27:16;;;;;;;2.67;1.17;;;;;;;4.74;55.32;99744.66;5092908;28;20052;-65
2022/05/10 02:29:59;;;;;;;2.65;0.98;;;;;;;4.69;55.39;99752.97;5092774;28;20047;-64
2022/05/10 02:35:21;;;;;;;3.50;0.90;;;;;;;4.70;55.31;99749.09;5093050;28;20097;-65
2022/05/10 02:37:48;;;;;;;2.00;1.20;;;;;;;4.69;55.51;99752.97;5093481;28;20047;-65
2022/05/10 02:40:15;;;;;;;3.53;0.70;;;;;;;4.75;55.42;99746.31;5091602;28;20044;-63
2022/05/10 02:42:48;;;;;;;2.38;0.93;;;;;;;4.76;55.52;99750.69;5092493;28;20139;-65
2022/05/10 02:45:18;;;;;;;1.63;0.70;;;;;;;4.83;55.55;99742.09;5092998;28;20415;-64
2022/05/10 02:47:47;;;;;;;2.13;0.90;;;;;;;4.87;55.41;99752.25;5092804;28;20056;-65
2022/05/10 02:50:26;;;;;;;2.22;0.80;;;;;;;4.88;54.91;99745.63;5092952;28;20568;-65
2022/05/10 02:52:54;;;;;;;2.05;0.73;;;;;;;4.89;54.87;99741.75;5075547;28;20518;-65
2022/05/10 02:55:32;;;;;;;1.80;0.80;;;;;;;4.98;54.70;99745.50;5093271;28;20060;-66
2022/05/10 02:58:08;;;;;;;2.58;0.68;;;;;;;5.02;54.74;99746.59;5092715;28;20044;-65
2022/05/10 03:00:35;;;;;;;1.60;0.80;;;;;;;5.07;54.52;99748.47;5093094;28;20048;-65
2022/05/10 03:03:09;;;;;;;1.55;0.80;;;;;;;5.15;53.96;99745.91;5092414;28;20048;-65
2022/05/10 03:05:36;;;;;;;3.63;0.70;;;;;;;5.13;54.74;99742.63;5092525;28;20131;-65
2022/05/10 03:08:06;;;;;;;1.93;0.70;;;;;;;5.16;54.54;99736.53;5092232;28;20396;-66
2022/05/10 03:10:35;;;;;;;2.60;0.80;;;;;;;5.15;54.75;99740.38;5092269;28;20091;-66
2022/05/10 03:13:03;;;;;;;6.63;1.10;;;;;;;5.17;54.43;99740.91;5092289;28;20452;-65
2022/05/10 03:15:31;;;;;;;1.70;0.65;;;;;;;5.28;54.01;99731.44;5090582;28;20059;-66
2022/05/10 03:17:58;;;;;;;1.27;0.70;;;;;;;5.42;53.59;99734.28;5092565;28;20445;-65
2022/05/10 03:20:25;;;;;;;1.73;0.98;;;;;;;5.53;53.20;99735.78;5092609;28;20054;-65
2022/05/10 03:22:54;;;;;;;1.35;0.68;;;;;;;5.68;53.12;99728.16;5090910;28;20064;-65
2022/05/10 03:25:22;;;;;;;2.00;0.80;;;;;;;5.91;52.33;99720.97;5093027;28;20056;-65
2022/05/10 03:27:49;;;;;;;0.80;0.60;;;;;;;6.12;51.45;99729.75;5093356;28;20090;-71
2022/05/10 03:30:17;;;;;;;2.15;0.70;;;;;;;6.40;51.74;99737.06;5093452;28;20059;-71
2022/05/10 03:32:44;;;;;;;2.60;0.82;;;;;;;6.49;50.82;99735.25;5096351;28;20048;-70
2022/05/10 03:35:15;;;;;;;2.40;1.00;;;;;;;6.67;50.91;99734.41;5096467;28;20055;-70
2022/05/10 03:37:43;;;;;;;1.38;0.68;;;;;;;6.74;50.14;99734.81;5096490;28;20377;-71
2022/05/10 03:40:12;;;;;;;0.90;0.70;;;;;;;6.83;49.94;99721.94;5082105;28;20057;-70
2022/05/10 03:42:46;;;;;;;2.17;0.82;;;;;;;6.77;49.85;99718.47;5075980;28;20448;-70
2022/05/10 03:45:16;;;;;;;1.25;0.80;;;;;;;6.84;49.60;99718.09;5076138;28;20101;-70
2022/05/10 03:47:43;;;;;;;2.83;0.80;;;;;;;6.80;49.65;99711.50;5075909;28;20560;-70
2022/05/10 03:50:10;;;;;;;5.28;0.80;;;;;;;6.88;49.05;99714.41;5076430;28;20044;-71
2022/05/10 03:52:38;;;;;;;1.40;0.70;;;;;;;6.97;49.06;99711.75;5075399;28;20040;-71
2022/05/10 03:55:07;;;;;;;3.38;0.80;;;;;;;7.13;48.84;99704.78;5075769;28;20549;-70
2022/05/10 03:57:39;;;;;;;2.70;0.80;;;;;;;7.26;48.99;99709.53;5075545;28;20059;-70
2022/05/10 04:00:10;;;;;;;1.98;0.90;;;;;;;7.41;48.64;99698.16;5075652;28;20044;-70
2022/05/10 04:02:38;;;;;;;5.07;0.68;;;;;;;7.44;47.93;99711.38;5076378;28;20086;-74
2022/05/10 04:05:06;;;;;;;2.90;0.98;;;;;;;7.35;47.67;99696.63;5075688;28;20458;-73
2022/05/10 04:07:34;;;;;;;1.80;0.80;;;;;;;7.21;47.07;99696.63;5083463;28;20056;-73
2022/05/10 04:10:00;;;;;;;1.80;0.75;;;;;;;7.26;47.53;99690.16;5095759;28;20055;-65
2022/05/10 04:12:28;;;;;;;1.67;0.73;;;;;;;7.53;47.03;99688.19;5095672;28;20076;-65
2022/05/10 04:14:56;;;;;;;1.33;0.60;;;;;;;7.76;47.17;99691.88;5094887;28;20052;-65
2022/05/10 04:17:23;;;;;;;1.60;0.60;;;;;;;7.99;46.65;99688.00;5094699;28;20123;-65
2022/05/10 04:19:50;;;;;;;2.40;0.77;;;;;;;8.23;45.99;99690.53;5087877;28;20040;-64
2022/05/10 04:22:17;;;;;;;1.38;0.70;;;;;;;8.14;45.61;99690.41;5074983;28;20511;-64
2022/05/10 04:25:05;;;;;;;1.30;0.77;;;;;;;8.02;45.04;99690.13;5075063;28;20088;-64
2022/05/10 04:27:33;;;;;;;1.80;0.90;;;;;;;8.09;45.39;99684.19;5075100;28;20323;-66
2022/05/10 04:30:00;;;;;;;1.13;0.70;;;;;;;8.31;44.81;99686.97;5075136;28;20170;-64
2022/05/10 04:32:28;;;;;;;2.83;0.80;;;;;;;8.43;44.71;99684.47;5075095;28;20056;-65
2022/05/10 04:34:55;;;;;;;4.03;1.05;;;;;;;8.51;44.58;99686.50;5074841;28;20074;-64
2022/05/10 04:37:21;;;;;;;1.10;0.60;;;;;;;8.43;43.89;99685.28;5074984;28;20109;-65
2022/05/10 04:42:34;;;;;;;1.05;0.65;;;;;;;8.59;43.88;99683.78;5073641;28;20059;-64
2022/05/10 04:45:01;;;;;;;0.88;0.60;;;;;;;8.96;43.47;99677.81;5074784;28;20106;-66
2022/05/10 04:47:28;;;;;;;3.17;0.65;;;;;;;9.12;43.03;99676.25;5074365;28;20044;-64
2022/05/10 04:49:55;;;;;;;1.13;0.60;;;;;;;9.07;42.70;99679.19;5074827;28;20411;-65
2022/05/10 04:52:22;;;;;;;1.98;1.15;;;;;;;9.05;42.97;99681.44;5074346;28;20048;-64
2022/05/10 04:54:49;;;;;;;0.85;0.60;;;;;;;9.17;42.41;99678.88;5074586;28;20041;-65
2022/05/10 04:57:16;;;;;;;1.90;0.60;;;;;;;9.26;42.24;99660.31;5075345;28;20049;-65
2022/05/10 04:59:43;;;;;;;2.00;0.65;;;;;;;9.27;41.46;99667.47;5075186;28;20048;-65
2022/05/10 05:02:10;;;;;;;1.33;0.80;;;;;;;9.12;41.73;99670.69;5074424;28;20048;-65
2022/05/10 05:04:37;;;;;;;2.97;0.90;;;;;;;9.09;41.74;99651.91;5074473;28;20080;-65
2022/05/10 05:07:04;;;;;;;1.85;0.75;;;;;;;9.12;41.48;99659.59;5078559;28;20117;-65
2022/05/10 05:09:31;;;;;;;2.25;0.70;;;;;;;9.35;41.70;99651.19;5094647;28;20048;-64
2022/05/10 05:11:58;;;;;;;2.00;0.80;;;;;;;9.44;41.38;99660.38;5094506;28;20055;-65
2022/05/10 05:14:25;;;;;;;2.38;0.75;;;;;;;9.51;41.06;99660.69;5095082;28;20040;-65
2022/05/10 05:16:54;;;;;;;1.95;0.65;;;;;;;9.50;40.98;99647.97;5094900;28;20510;-65
2022/05/10 05:19:21;;;;;;;5.03;0.70;;;;;;;9.62;40.54;99639.81;5095217;28;20040;-66
2022/05/10 05:21:48;;;;;;;1.13;0.60;;;;;;;9.78;39.96;99649.31;5094112;28;20073;-65
2022/05/10 05:24:15;;;;;;;1.13;0.65;;;;;;;9.88;40.01;99635.09;5094290;28;20051;-65
2022/05/10 05:26:42;;;;;;;2.05;0.80;;;;;;;10.12;40.14;99629.91;5093208;28;20047;-65
2022/05/10 05:29:09;;;;;;;4.32;0.60;;;;;;;10.38;39.58;99627.94;5092999;28;20125;-65
2022/05/10 05:31:36;;;;;;;1.88;0.82;;;;;;;10.41;38.46;99607.81;5082408;28;20048;-65
2022/05/10 05:34:03;;;;;;;0.55;0.50;;;;;;;10.41;38.33;99607.81;5073067;28;20048;-65
2022/05/10 05:36:30;;;;;;;0.73;0.60;;;;;;;10.46;37.13;99602.09;5073710;28;20492;-65
2022/05/10 05:38:57;;;;;;;2.28;0.93;;;;;;;10.68;37.93;99607.41;5073507;28;20094;-64
2022/05/10 05:41:24;;;;;;;1.50;0.80;;;;;;;10.91;36.73;99595.72;5073618;28;20530;-65
2022/05/10 05:43:51;;;;;;;1.67;0.95;;;;;;;11.27;36.45;99592.44;5073766;28;20044;-64
2022/05/10 05:46:18;;;;;;;3.17;0.80;;;;;;;11.82;36.68;99589.47;5073141;28;20092;-64
2022/05/10 05:48:46;;;;;;;1.33;0.65;;;;;;;12.02;35.64;99586.69;5073532;28;20135;-64
2022/05/10 05:51:13;;;;;;;0.98;0.60;;;;;;;12.04;34.91;99597.50;5072859;28;20056;-63
2022/05/10 05:53:40;;;;;;;2.70;0.60;;;;;;;12.32;34.17;99590.19;5072008;28;20600;-65
2022/05/10 05:56:10;;;;;;;2.80;1.00;;;;;;;13.77;32.42;99580.78;5073795;28;20147;-64
2022/05/10 05:58:38;;;;;;;;;;;;;;;15.18;29.63;99574.41;5073818;28;20102;-65
2022/05/10 06:01:13;;;;;;;3.10;0.90;;;;;;;13.96;29.75;99575.41;5073554;28;19928;-67
2022/05/10 06:03:42;;;;;;;0.95;0.63;;;;;;;12.93;31.02;99573.25;5074044;28;20503;-65
2022/05/10 06:06:11;;;;;;;0.98;0.70;;;;;;;12.39;31.91;99577.31;5093574;28;20507;-64
2022/05/10 06:08:43;;;;;;;2.88;0.75;;;;;;;12.62;31.14;99577.75;5094243;28;20056;-64
2022/05/10 06:11:10;;;;;;;2.85;0.70;;;;;;;13.02;30.47;99577.97;5093505;28;20387;-65
2022/05/10 06:13:37;;;;;;;2.47;1.45;;;;;;;14.16;28.64;99573.59;5093416;28;20058;-66
2022/05/10 06:16:06;;;;;;;1.25;0.60;;;;;;;14.72;27.70;99566.81;5093098;28;20048;-65
2022/05/10 06:18:34;;;;;;;0.55;0.40;;;;;;;14.48;27.51;99558.56;5093344;28;20094;-65
2022/05/10 06:21:01;;;;;;;1.17;0.60;;;;;;;13.75;28.74;99559.97;5093012;28;20154;-65
2022/05/10 06:23:28;;;;;;;2.08;0.70;;;;;;;13.84;28.94;99563.44;5092824;28;20510;-65
2022/05/10 06:25:55;;;;;;;10.73;3.53;;;;;;;14.07;28.42;99556.13;5093300;28;20445;-65
2022/05/10 06:28:23;;;;;;;1.48;0.90;;;;;;;13.69;28.72;99544.59;5093281;28;20093;-65
2022/05/10 06:30:50;;;;;;;6.72;0.98;;;;;;;13.39;29.11;99537.66;5093129;28;20058;-64
2022/05/10 06:33:17;;;;;;;0.82;0.50;;;;;;;12.48;28.83;99539.00;5092697;28;20069;-64
2022/05/10 06:35:44;;;;;;;1.35;0.70;;;;;;;11.85;29.98;99552.56;5093090;28;20411;-65
2022/05/10 06:38:19;;;;;;;1.50;0.65;;;;;;;12.00;29.99;99546.38;5092953;28;20047;-65
2022/05/10 06:40:49;;;;;;;3.60;1.27;;;;;;;11.36;31.06;99548.63;5093068;28;20071;-65
2022/05/10 06:43:17;;;;;;;;;;;;;;;12.15;29.70;99540.97;5092038;28;20136;-65
2022/05/10 06:45:44;;;;;;;2.17;0.70;;;;;;;12.07;29.49;99544.66;5086676;28;20021;-65
2022/05/10 06:48:12;;;;;;;8.63;4.22;;;;;;;11.97;29.91;99539.53;5072331;28;20147;-65
2022/05/10 06:50:39;;;;;;;4.55;0.70;;;;;;;11.67;30.23;99535.19;5073538;28;20052;-65
2022/05/10 06:53:06;;;;;;;1.83;0.70;;;;;;;11.35;31.09;99529.47;5072582;28;20052;-63
2022/05/10 06:55:35;;;;;;;2.67;0.70;;;;;;;11.41;30.77;99517.81;5072708;28;20498;-65
2022/05/10 06:58:03;;;;;;;0.45;0.40;;;;;;;11.10;30.37;99520.13;5072543;28;20048;-64
2022/05/10 07:00:33;;;;;;;5.65;0.70;;;;;;;11.72;29.99;99518.25;5072640;28;20462;-65
2022/05/10 07:03:12;;;;;;;1.45;0.60;;;;;;;11.29;31.09;99525.25;5072461;28;20450;-64
2022/05/10 07:05:41;;;;;;;2.03;0.65;;;;;;;11.24;31.10;99526.28;5076064;28;20053;-65
2022/05/10 07:08:08;;;;;;;3.33;0.67;;;;;;;11.54;30.24;99513.94;5089752;28;20441;-65
2022/05/10 07:10:35;;;;;;;2.60;0.75;;;;;;;11.91;29.85;99518.59;5096918;28;20484;-64
2022/05/10 07:13:02;;;;;;;5.82;0.80;;;;;;;11.89;30.42;99511.69;5096856;28;20495;-64
2022/05/10 07:15:30;;;;;;;5.75;0.93;;;;;;;11.71;30.84;99499.91;5096460;28;20044;-64
2022/05/10 07:17:57;;;;;;;4.75;0.90;;;;;;;11.21;30.37;99501.88;5096337;28;20044;-65
2022/05/10 07:20:24;;;;;;;1.05;0.65;;;;;;;11.03;31.25;99503.16;5096794;28;20533;-64
2022/05/10 07:22:52;;;;;;;1.92;0.80;;;;;;;11.31;30.14;99498.69;5096280;28;20059;-65
2022/05/10 07:25:23;;;;;;;3.05;0.65;;;;;;;11.66;29.43;99499.31;5096633;28;20403;-65
2022/05/10 07:27:49;;;;;;;1.25;0.65;;;;;;;12.84;27.93;99483.22;5095432;28;20121;-65
2022/05/10 07:30:16;;;;;;;2.00;0.95;;;;;;;12.72;27.08;99496.34;5096593;28;20071;-73
2022/05/10 07:32:43;;;;;;;5.60;1.00;;;;;;;12.16;27.42;99492.41;5096608;28;20048;-70
2022/05/10 07:35:10;;;;;;;1.17;0.70;;;;;;;12.19;27.78;99502.88;5096799;28;20097;-71
2022/05/10 07:37:39;;;;;;;2.90;0.73;;;;;;;11.86;27.97;99502.06;5096316;28;20055;-71
2022/05/10 07:40:10;;;;;;;1.13;0.63;;;;;;;11.59;28.73;99499.81;5096552;28;20540;-71
2022/05/10 07:42:39;;;;;;;2.88;0.80;;;;;;;11.36;28.84;99504.06;5096340;28;20058;-71
2022/05/10 07:45:09;;;;;;;1.05;0.60;;;;;;;10.91;29.65;99498.31;5095221;28;20380;-70
2022/05/10 07:47:36;;;;;;;1.23;0.65;;;;;;;11.04;29.49;99488.91;5075561;28;20559;-71
2022/05/10 07:50:03;;;;;;;4.18;0.70;;;;;;;11.29;29.31;99478.75;5075877;28;20407;-70
2022/05/10 07:52:30;;;;;;;1.10;0.68;;;;;;;10.83;29.33;99476.09;5075733;28;20056;-71
2022/05/10 07:54:59;;;;;;;1.55;0.80;;;;;;;10.86;29.86;99470.69;5075718;28;20048;-71
2022/05/10 07:57:26;;;;;;;2.28;0.90;;;;;;;10.75;30.05;99457.50;5075911;28;20059;-71
2022/05/10 07:59:53;;;;;;;4.55;0.82;;;;;;;10.62;30.05;99466.88;5075776;28;20090;-71
2022/05/10 08:02:20;;;;;;;11.20;1.35;;;;;;;11.38;29.09;99470.31;5075768;28;20054;-71
2022/05/10 08:04:47;;;;;;;2.42;0.70;;;;;;;11.98;27.73;99468.66;5101873;28;20393;-70
2022/05/10 08:07:14;;;;;;;5.25;0.85;;;;;;;13.87;25.68;99462.06;5095913;28;20055;-70
2022/05/10 08:09:41;;;;;;;1.98;0.60;;;;;;;12.95;26.57;99452.84;5095661;28;20044;-71
2022/05/10 08:12:08;;;;;;;6.20;0.95;;;;;;;12.19;27.76;99455.47;5096236;28;20066;-71
2022/05/10 08:14:35;;;;;;;1.75;0.75;;;;;;;11.56;28.85;99449.53;5095650;28;20538;-71
2022/05/10 08:17:02;;;;;;;3.28;0.85;;;;;;;11.08;28.95;99444.50;5095444;28;20517;-71
2022/05/10 08:19:29;;;;;;;4.85;1.00;;;;;;;11.02;28.69;99468.94;5095455;28;20051;-71
2022/05/10 08:21:58;;;;;;;2.05;1.02;;;;;;;12.18;27.91;99441.88;5095189;28;20071;-70
2022/05/10 08:24:25;;;;;;;4.25;1.70;;;;;;;12.95;26.88;99441.69;5095016;28;20055;-71
2022/05/10 08:26:52;;;;;;;9.75;1.05;;;;;;;12.47;27.05;99419.38;5095353;28;20044;-71
2022/05/10 08:29:19;;;;;;;1.25;0.80;;;;;;;12.28;27.29;99419.91;5095501;28;20056;-71
2022/05/10 08:31:47;;;;;;;4.10;0.70;;;;;;;12.87;26.22;99426.69;5095613;28;20118;-70
2022/05/10 08:34:14;;;;;;;1.83;0.60;;;;;;;13.26;25.83;99422.31;5095006;28;20134;-70
2022/05/10 08:36:41;;;;;;;1.88;0.80;;;;;;;14.72;24.05;99421.19;5094673;28;20052;-70
2022/05/10 08:39:08;;;;;;;2.95;0.80;;;;;;;13.72;24.96;99412.50;5095502;28;20407;-70
2022/05/10 08:41:45;;;;;;;6.03;2.17;;;;;;;13.39;25.96;99390.41;5095569;28;20056;-71
2022/05/10 08:44:14;;;;;;;2.33;0.73;;;;;;;12.56;26.48;99392.16;5095124;28;20047;-70
2022/05/10 08:46:45;;;;;;;7.45;0.70;;;;;;;11.74;27.96;99410.03;5094583;28;20090;-71
2022/05/10 08:49:21;;;;;;;2.40;1.17;;;;;;;11.29;28.32;99408.31;5095108;28;20134;-70
2022/05/10 08:51:51;;;;;;;2.03;0.80;;;;;;;11.65;27.29;99402.91;5095717;28;20097;-70
2022/05/10 08:54:19;;;;;;;5.57;0.77;;;;;;;12.14;26.77;99387.97;5110619;28;20093;-71
2022/05/10 08:56:53;;;;;;;3.50;0.60;;;;;;;12.57;26.88;99391.00;5094864;28;20379;-70
2022/05/10 08:59:29;;;;;;;1.42;0.77;;;;;;;12.13;27.17;99395.50;5094624;28;20048;-71
2022/05/10 09:02:05;;;;;;;1.98;0.98;;;;;;;11.81;27.73;99382.41;5094159;28;20048;-71
2022/05/10 09:04:47;;;;;;;6.60;0.88;;;;;;;11.92;27.60;99378.03;5086750;28;20384;-71
2022/05/10 09:07:56;;;;;;;1.55;0.52;;;;;;;11.82;27.03;99353.41;5074123;28;20055;-71
2022/05/10 09:10:53;;;;;;;2.72;0.77;;;;;;;11.08;26.47;99345.09;5074891;28;20076;-74
2022/05/10 09:13:22;;;;;;;1.55;0.75;;;;;;;10.73;26.23;99371.59;5061766;28;20405;-65
2022/05/10 09:15:56;;;;;;;2.88;0.70;;;;;;;10.73;27.13;99381.88;5074300;28;20040;-64
2022/05/10 09:18:29;;;;;;;2.65;0.88;;;;;;;10.86;26.72;99378.03;5074063;28;20059;-65
2022/05/10 09:21:15;;;;;;;2.00;0.80;;;;;;;10.68;25.94;99365.38;5073894;28;20048;-65
2022/05/10 09:24:00;;;;;;;1.77;0.60;;;;;;;10.48;26.60;99385.66;5073531;28;20059;-64
2022/05/10 09:26:39;;;;;;;3.03;0.52;;;;;;;10.57;27.00;99386.41;5073936;28;20048;-65
2022/05/10 09:29:40;;;;;;;1.70;0.70;;;;;;;10.77;27.19;99383.66;5073866;28;20573;-65
2022/05/10 09:35:24;;;;;;;0.52;0.50;;;;;;;11.16;26.20;99387.13;5081713;28;20054;-65
2022/05/10 09:37:58;;;;;;;5.85;0.93;;;;;;;10.99;26.88;99385.31;5094602;28;20059;-65
2022/05/10 09:40:46;;;;;;;1.70;0.50;;;;;;;10.97;26.19;99377.28;5094513;28;20082;-65
2022/05/10 09:43:22;;;;;;;1.90;0.82;;;;;;;10.99;26.51;99369.41;5075544;28;20427;-66
2022/05/10 09:46:11;;;;;;;3.83;0.60;;;;;;;11.08;26.42;99366.56;5093727;28;20040;-65
2022/05/10 09:48:40;;;;;;;2.75;0.88;;;;;;;11.02;26.95;99370.72;5093348;28;20047;-66
2022/05/10 09:51:39;;;;;;;10.57;1.63;;;;;;;10.89;27.00;99374.56;5094220;28;20055;-64
2022/05/10 09:54:21;;;;;;;2.58;0.73;;;;;;;10.63;27.94;99365.59;5093690;28;20388;-65
2022/05/10 09:56:56;;;;;;;0.75;0.50;;;;;;;10.44;27.44;99388.28;5094156;28;20048;-64
2022/05/10 09:59:24;;;;;;;4.05;0.63;;;;;;;10.35;28.48;99389.47;5092312;28;20502;-65
2022/05/10 10:01:58;;;;;;;14.40;1.10;;;;;;;10.54;27.97;99406.56;5093485;28;20490;-69
2022/05/10 10:04:37;;;;;;;13.45;1.75;;;;;;;10.59;28.06;99409.13;5093284;28;20051;-65
2022/05/10 10:07:13;;;;;;;5.00;0.65;;;;;;;10.71;27.49;99407.25;5093336;28;20599;-65
2022/05/10 10:09:45;;;;;;;5.35;1.08;;;;;;;10.80;27.66;99413.59;5093668;28;20040;-65
2022/05/10 10:12:27;;;;;;;1.05;0.65;;;;;;;10.99;27.35;99390.88;5075557;28;20043;-66
2022/05/10 10:14:54;;;;;;;0.68;0.57;;;;;;;11.13;27.13;99382.25;5093178;28;20040;-64
2022/05/10 10:17:28;;;;;;;3.67;0.70;;;;;;;11.05;27.72;99386.72;5093289;28;20502;-67
2022/05/10 10:20:05;;;;;;;0.98;0.73;;;;;;;10.95;27.35;99378.78;5093345;28;20044;-65
2022/05/10 10:22:44;;;;;;;1.63;0.80;;;;;;;10.84;27.57;99383.13;5092846;28;20064;-64
2022/05/10 10:25:18;;;;;;;7.18;0.77;;;;;;;10.76;28.05;99382.03;5093218;28;20130;-65
2022/05/10 10:27:59;;;;;;;1.38;0.75;;;;;;;10.60;28.46;99371.84;5093053;28;20051;-65
2022/05/10 10:30:33;;;;;;;2.40;0.70;;;;;;;10.36;28.46;99378.00;5094017;28;20048;-75
2022/05/10 10:33:08;;;;;;;0.82;0.50;;;;;;;10.50;28.53;99361.09;5093056;28;20555;-74
2022/05/10 10:35:47;;;;;;;4.97;1.10;;;;;;;10.30;28.77;99365.44;5093075;28;20051;-77
2022/05/10 10:38:17;;;;;;;2.17;0.70;;;;;;;10.22;28.71;99377.41;5092889;28;20052;-75
2022/05/10 10:40:52;;;;;;;10.20;0.70;;;;;;;10.36;28.37;99372.44;5074508;28;20040;-75
2022/05/10 10:43:54;;;;;;;0.60;0.60;;;;;;;10.18;29.69;99370.91;5093166;28;20089;-74
2022/05/10 10:46:42;;;;;;;4.65;0.70;;;;;;;9.98;30.73;99379.16;5093134;28;20126;-73
2022/05/10 10:49:16;;;;;;;2.38;0.70;;;;;;;9.89;30.22;99358.91;5092905;28;20048;-73
2022/05/10 10:51:43;;;;;;;4.07;0.88;;;;;;;9.90;30.92;99386.38;5092498;28;20051;-75
2022/05/10 10:54:25;;;;;;;1.35;0.70;;;;;;;10.09;30.15;99366.53;5093661;28;20063;-75
2022/05/10 10:57:04;;;;;;;1.35;0.63;;;;;;;10.22;30.49;99382.19;5092766;28;20407;-73
2022/05/10 10:59:42;;;;;;;1.75;0.80;;;;;;;10.13;30.09;99384.97;5092856;28;20052;-74
2022/05/10 11:02:28;;;;;;;9.48;0.85;;;;;;;9.85;31.10;99371.81;5074771;28;20048;-74
2022/05/10 11:05:05;;;;;;;3.47;1.00;;;;;;;9.58;32.23;99366.66;5089496;28;20130;-74
2022/05/10 11:08:09;;;;;;;3.55;0.80;;;;;;;9.60;31.59;99387.44;5090782;28;20048;-73
2022/05/10 11:10:56;;;;;;;1.98;0.90;;;;;;;9.75;31.51;99391.63;5065129;28;20063;-74
2022/05/10 11:13:23;;;;;;;2.83;0.88;;;;;;;9.69;31.92;99396.56;5092229;28;20084;-74
2022/05/10 11:15:59;;;;;;;6.90;1.08;;;;;;;9.83;31.87;99390.81;5092659;28;20191;-74
2022/05/10 11:18:45;;;;;;;4.82;0.82;;;;;;;9.96;31.79;99398.09;5092372;28;20504;-74
2022/05/10 11:21:23;;;;;;;1.15;0.70;;;;;;;10.05;31.74;99390.56;5092835;28;20121;-74
2022/05/10 11:24:32;;;;;;;1.08;0.68;;;;;;;10.06;32.30;99397.72;5092362;28;20515;-74
2022/05/10 11:27:11;;;;;;;2.88;0.60;;;;;;;9.81;32.63;99405.03;5093027;28;20055;-74
2022/05/10 11:30:06;;;;;;;4.18;1.00;;;;;;;9.79;32.43;99389.81;5092495;28;20043;-73
2022/05/10 11:33:31;;;;;;;4.80;0.80;;;;;;;9.82;31.89;99411.38;5092813;28;20047;-74
2022/05/10 11:36:02;;;;;;;2.38;0.70;;;;;;;9.71;32.75;99426.78;5047743;28;20581;-73
2022/05/10 11:38:58;;;;;;;2.30;0.80;;;;;;;9.62;33.46;99428.75;5050120;28;20068;-73
2022/05/10 11:41:46;;;;;;;2.78;0.80;;;;;;;9.53;34.16;99439.06;5049830;28;20060;-73
2022/05/10 11:44:34;;;;;;;1.23;0.70;;;;;;;9.53;34.97;99441.84;5050714;28;20052;-73
2022/05/10 11:47:30;;;;;;;0.90;0.60;;;;;;;9.29;36.92;99472.84;5049733;28;20052;-75
2022/05/10 11:50:00;;;;;;;1.45;0.70;;;;;;;8.82;39.77;99454.34;5049870;28;20077;-74
2022/05/10 11:52:51;;;;;;;6.00;0.80;;;;;;;8.73;40.93;99465.44;5053980;28;20557;-72
2022/05/10 11:55:18;;;;;;;;;;;;;;;8.70;41.73;99446.66;5018407;28;20049;-73
2022/05/10 11:57:45;;;;;;;6.88;0.70;;;;;;;8.57;42.80;99464.25;5053871;28;19925;-74
2022/05/10 12:00:27;;;;;;;1.83;0.88;;;;;;;8.50;43.29;99469.44;5053196;28;20091;-74
2022/05/10 12:02:54;;;;;;;1.58;0.80;;;;;;;8.57;42.99;99457.88;5053475;28;20621;-74
2022/05/10 12:05:36;;;;;;;2.50;1.00;;;;;;;8.54;43.82;99455.75;5053235;28;20083;-73
2022/05/10 12:08:22;;;;;;;12.93;4.55;;;;;;;8.60;44.00;99463.59;5053038;28;20045;-73
2022/05/10 12:10:49;;;;;;;2.55;1.45;;;;;;;8.71;44.15;99456.59;5088414;28;20056;-74
2022/05/10 12:22:52;;;;;;;5.70;0.88;;;;;;;8.23;47.85;99463.31;5095506;28;20108;-74
2022/05/10 12:25:54;;;;;;;4.20;0.88;;;;;;;8.24;48.64;99449.13;5095431;28;20091;-72